Visit the IPS Meteostar Home Page IPSM Reagan National Airport FORECAST

Washington, DC

53

58

65

55

52

52

52

55

45
45
42
38
38
42
42

4 miles away at Reagan National Airport 15:52 GMT

Weather:

Clear

Wind:

S 10 mph

Temperature:

53 ° F

Pressure:

30.34

Dew Point:

35 ° F

Relative Humidity:

50

Feels Like:

53 ° F

Visibility:

10 miles


Aviation Observations:

KDCA 221552Z 19009KT 10SM FEW160 FEW250 12/02 A3032 RMK AO2 SLP267 T01170017 =

National Weather Service Forecast:
District of Columbia
1154 AM EDT MON OCT 22 2018

REST OF TODAY

Sunny. Highs in the upper 50s. South winds 5 to 10 mph.

TONIGHT

Partly cloudy. Lows in the mid 40s. Southwest winds 5 to 10 mph.

TUESDAY

Sunny. Highs in the mid 60s. West winds 5 to 10 mph.

TUESDAY NIGHT

Mostly clear. Lows in the lower 40s. Northwest winds 5 to 10 mph with gusts up to 20 mph.

WEDNESDAY

Sunny. Highs in the mid 50s. Northwest winds 10 to 15 mph.

WEDNESDAY NIGHT

Mostly clear. Lows in the upper 30s.

THURSDAY

Sunny. Highs in the lower 50s.

THURSDAY NIGHT

Partly cloudy. Lows in the upper 30s.

FRIDAY

Partly sunny. Highs in the lower 50s.

FRIDAY NIGHT

Mostly cloudy with a 50 percent chance of rain. lows in the lower 40s.

SATURDAY

Rain likely. Highs in the lower 50s. Chance of rain 70 percent.

SATURDAY NIGHT

Mostly cloudy with a 40 percent chance of rain. lows in the lower 40s.

SUNDAY

Mostly cloudy with a 40 percent chance of showers. highs in the mid 50s.


Visit the IPS Meteostar Home Page